createdAt,value
2023-04-01T00:00:56.793Z,9.76
2023-04-01T00:03:27.908Z,9.67
2023-04-01T00:05:56.211Z,9.58
2023-04-01T00:08:24.732Z,9.45
2023-04-01T00:10:53.053Z,9.37
2023-04-01T00:13:23.360Z,9.27
2023-04-01T00:15:51.722Z,9.20
2023-04-01T00:18:19.837Z,9.19
2023-04-01T00:20:48.733Z,9.19
2023-04-01T00:23:17.290Z,9.17
2023-04-01T00:25:46.731Z,9.19
2023-04-01T00:28:15.086Z,9.24
2023-04-01T00:30:44.583Z,9.32
2023-04-01T00:33:12.850Z,9.38
2023-04-01T00:35:41.537Z,9.42
2023-04-01T00:38:09.793Z,9.38
2023-04-01T00:40:39.689Z,9.31
2023-04-01T00:43:14.338Z,9.22
2023-04-01T00:45:46.513Z,9.13
2023-04-01T00:48:18.565Z,9.07
2023-04-01T00:50:51.807Z,9.00
2023-04-01T00:53:22.283Z,9.00
2023-04-01T00:55:56.194Z,9.02
2023-04-01T00:58:26.923Z,9.06
2023-04-01T01:00:59.115Z,9.11
2023-04-01T01:03:27.355Z,9.10
2023-04-01T01:06:08.927Z,9.08
2023-04-01T01:08:49.578Z,9.08
2023-04-01T01:11:22.356Z,9.07
2023-04-01T01:13:58.385Z,9.04
2023-04-01T01:16:31.165Z,9.02
2023-04-01T01:19:09.334Z,8.99
2023-04-01T01:21:49.945Z,8.97
2023-04-01T01:24:45.141Z,8.99
2023-04-01T01:27:14.885Z,9.06
2023-04-01T01:29:54.856Z,9.16
2023-04-01T01:32:41.320Z,9.27
2023-04-01T01:35:23.070Z,9.32
2023-04-01T01:37:56.708Z,9.34
2023-04-01T01:40:28.475Z,9.37
2023-04-01T01:43:00.183Z,9.43
2023-04-01T01:45:29.622Z,9.45
2023-04-01T01:47:59.097Z,9.45
2023-04-01T01:50:30.090Z,9.41
2023-04-01T01:53:09.534Z,9.40
2023-04-01T01:55:39.379Z,9.40
2023-04-01T01:58:14.316Z,9.29
2023-04-01T02:00:46.314Z,9.30
2023-04-01T02:03:17.095Z,9.36
2023-04-01T02:05:47.262Z,9.43
2023-04-01T02:08:19.164Z,9.51
2023-04-01T02:10:57.456Z,9.60
2023-04-01T02:13:31.980Z,9.64
2023-04-01T02:16:05.987Z,9.65
2023-04-01T02:18:37.758Z,9.64
2023-04-01T02:21:09.595Z,9.55
2023-04-01T02:23:40.175Z,9.38
2023-04-01T02:26:10.588Z,9.19
2023-04-01T02:28:41.311Z,9.12
2023-04-01T02:31:12.278Z,9.13
2023-04-01T02:33:41.549Z,9.14
2023-04-01T02:36:15.773Z,9.17
2023-04-01T02:38:46.609Z,9.21
2023-04-01T02:41:14.914Z,9.28
2023-04-01T02:43:42.953Z,9.31
2023-04-01T02:46:11.044Z,9.33
2023-04-01T02:48:39.006Z,9.37
2023-04-01T02:51:07.219Z,9.41
2023-04-01T02:53:36.739Z,9.46
2023-04-01T02:56:05.126Z,9.50
2023-04-01T02:58:33.063Z,9.49
2023-04-01T03:01:01.127Z,9.43
2023-04-01T03:03:29.215Z,9.36
2023-04-01T03:05:59.716Z,9.28
2023-04-01T03:08:27.696Z,9.27
2023-04-01T03:10:58.518Z,9.30
2023-04-01T03:13:27.873Z,9.36
2023-04-01T03:15:56.231Z,9.44
2023-04-01T03:18:24.223Z,9.49
2023-04-01T03:20:52.693Z,9.53
2023-04-01T03:23:22.170Z,9.55
2023-04-01T03:25:50.281Z,9.50
2023-04-01T03:28:19.687Z,9.47
2023-04-01T03:30:47.785Z,9.48
2023-04-01T03:33:15.857Z,9.49
2023-04-01T03:35:43.914Z,9.50
2023-04-01T03:38:11.951Z,9.53
2023-04-01T03:40:44.058Z,9.55
2023-04-01T03:43:12.395Z,9.60
2023-04-01T03:45:47.382Z,9.61
2023-04-01T03:48:16.237Z,9.60
2023-04-01T03:50:44.908Z,9.54
2023-04-01T03:53:13.334Z,9.44
2023-04-01T03:55:42.166Z,9.31
2023-04-01T03:58:10.387Z,9.20
2023-04-01T04:00:38.501Z,9.14
2023-04-01T04:03:08.532Z,9.14
2023-04-01T04:05:36.660Z,9.13
2023-04-01T04:08:05.341Z,9.15
2023-04-01T04:10:33.292Z,9.19
2023-04-01T04:13:01.301Z,9.22
2023-04-01T04:15:29.273Z,9.25
2023-04-01T04:17:57.386Z,9.25
2023-04-01T04:20:26.838Z,9.25
2023-04-01T04:22:54.871Z,9.29
2023-04-01T04:25:22.860Z,9.27
2023-04-01T04:27:51.412Z,9.20
2023-04-01T04:30:19.731Z,9.20
2023-04-01T04:32:47.711Z,9.18
2023-04-01T04:35:16.427Z,9.16
2023-04-01T04:37:45.841Z,9.21
2023-04-01T04:40:13.917Z,9.28
2023-04-01T04:42:41.950Z,9.29
2023-04-01T04:45:10.604Z,9.28
2023-04-01T04:47:38.700Z,9.32
2023-04-01T04:50:08.181Z,9.36
2023-04-01T04:52:36.201Z,9.42
2023-04-01T04:55:06.461Z,9.45
2023-04-01T04:57:34.502Z,9.42
2023-04-01T05:00:02.544Z,9.35
2023-04-01T05:02:31.782Z,9.15
2023-04-01T05:04:59.882Z,8.99
2023-04-01T05:07:27.909Z,8.86
2023-04-01T05:09:55.995Z,8.76
2023-04-01T05:12:25.436Z,8.66
2023-04-01T05:14:53.429Z,8.61
2023-04-01T05:17:21.543Z,8.59
2023-04-01T05:19:49.538Z,8.59
2023-04-01T05:22:17.519Z,8.62
2023-04-01T05:24:45.516Z,8.57
2023-04-01T05:27:13.488Z,8.52
2023-04-01T05:29:42.987Z,8.56
2023-04-01T05:32:10.962Z,8.68
2023-04-01T05:34:39.021Z,8.81
2023-04-01T05:37:08.320Z,8.91
2023-04-01T05:39:38.899Z,8.92
2023-04-01T05:42:08.579Z,8.94
2023-04-01T05:44:36.797Z,8.94
2023-04-01T05:47:06.608Z,9.01
2023-04-01T05:49:35.901Z,9.10
2023-04-01T05:52:03.955Z,9.14
2023-04-01T05:54:31.925Z,9.12
2023-04-01T05:56:59.980Z,9.16
2023-04-01T05:59:28.078Z,9.20
2023-04-01T06:01:57.740Z,9.13
2023-04-01T06:04:31.774Z,9.09
2023-04-01T06:06:59.917Z,9.18
2023-04-01T06:09:30.297Z,9.20
2023-04-01T06:12:17.400Z,9.28
2023-04-01T06:14:54.807Z,9.43
2023-04-01T06:17:32.394Z,9.51
2023-04-01T06:20:12.318Z,9.45
2023-04-01T06:22:58.414Z,9.35
2023-04-01T06:25:51.658Z,9.34
2023-04-01T06:29:01.421Z,9.40
2023-04-01T06:31:52.009Z,9.48
2023-04-01T06:34:36.425Z,9.60
2023-04-01T06:37:22.997Z,9.68
2023-04-01T06:40:08.854Z,9.73
2023-04-01T06:42:59.455Z,9.76
2023-04-01T06:45:38.614Z,9.79
2023-04-01T06:48:18.461Z,9.83
2023-04-01T06:50:56.978Z,9.86
2023-04-01T06:53:37.165Z,9.94
2023-04-01T06:56:09.628Z,10.01
2023-04-01T06:58:42.158Z,10.03
2023-04-01T07:01:14.790Z,10.05
2023-04-01T07:03:47.408Z,10.10
2023-04-01T07:06:22.899Z,10.13
2023-04-01T07:08:55.631Z,10.16
2023-04-01T07:11:29.390Z,10.14
2023-04-01T07:14:01.939Z,10.10
2023-04-01T07:16:33.897Z,10.00
2023-04-01T07:19:07.382Z,9.88
2023-04-01T07:21:38.818Z,9.73
2023-04-01T07:24:14.368Z,9.62
2023-04-01T07:26:42.345Z,9.64
2023-04-01T07:29:13.220Z,9.71
2023-04-01T07:32:14.519Z,9.79
2023-04-01T07:34:54.777Z,9.77
2023-04-01T07:37:31.021Z,9.74
2023-04-01T07:40:09.731Z,9.78
2023-04-01T07:42:47.569Z,9.88
2023-04-01T07:45:25.777Z,9.97
2023-04-01T07:48:06.400Z,10.10
2023-04-01T07:50:39.737Z,10.26
2023-04-01T07:53:18.003Z,10.36
2023-04-01T07:55:53.181Z,10.45
2023-04-01T07:58:27.232Z,10.39
2023-04-01T08:01:01.806Z,10.43
2023-04-01T08:03:40.684Z,10.52
2023-04-01T08:06:16.789Z,10.63
2023-04-01T08:08:56.766Z,10.69
2023-04-01T08:11:41.846Z,10.83
2023-04-01T08:14:21.326Z,11.01
2023-04-01T08:17:01.648Z,11.19
2023-04-01T08:19:49.836Z,11.47
2023-04-01T08:22:22.194Z,11.68
2023-04-01T08:24:53.175Z,11.78
2023-04-01T08:27:27.228Z,11.81
2023-04-01T08:30:01.765Z,11.68
2023-04-01T08:32:35.125Z,11.82
2023-04-01T08:35:12.100Z,12.08
2023-04-01T08:37:43.351Z,12.48
2023-04-01T08:40:43.940Z,12.90
2023-04-01T08:43:24.491Z,13.39
2023-04-01T08:46:15.605Z,13.91
2023-04-01T08:49:00.473Z,14.84
2023-04-01T08:51:54.423Z,15.80
2023-04-01T08:54:39.920Z,17.08
2023-04-01T08:57:16.342Z,18.34
2023-04-01T08:59:59.732Z,19.03
2023-04-01T09:03:06.904Z,19.69
2023-04-01T09:05:46.734Z,20.65
2023-04-01T09:08:26.822Z,21.38
2023-04-01T09:11:19.092Z,21.77
2023-04-01T09:14:14.597Z,21.53
2023-04-01T09:17:09.874Z,21.30
2023-04-01T09:19:59.919Z,21.28
2023-04-01T09:22:39.859Z,21.41
2023-04-01T09:25:51.599Z,21.56
2023-04-01T09:28:22.337Z,21.76
2023-04-01T09:31:15.673Z,21.97
2023-04-01T09:34:05.503Z,22.36
2023-04-01T09:36:46.555Z,23.40
2023-04-01T09:39:37.359Z,24.35
2023-04-01T09:42:43.717Z,25.05
2023-04-01T09:45:23.651Z,25.18
2023-04-01T09:48:05.193Z,25.81
2023-04-01T09:50:43.933Z,27.12
2023-04-01T09:53:30.661Z,29.15
2023-04-01T09:56:32.524Z,31.48
2023-04-01T09:59:44.769Z,33.27
2023-04-01T10:02:48.478Z,33.91
2023-04-01T10:05:54.104Z,33.37
2023-04-01T10:09:12.935Z,33.08
2023-04-01T10:12:14.282Z,31.59
2023-04-01T10:15:20.776Z,28.70
2023-04-01T10:18:16.879Z,26.98
2023-04-01T10:21:05.645Z,25.89
2023-04-01T10:24:11.025Z,25.84
2023-04-01T10:27:04.617Z,28.59
2023-04-01T10:30:06.694Z,30.00
2023-04-01T10:33:03.286Z,31.32
2023-04-01T10:36:18.336Z,33.23
2023-04-01T10:39:09.252Z,35.69
2023-04-01T10:42:11.163Z,37.66
2023-04-01T10:45:06.391Z,40.03
2023-04-01T10:48:07.138Z,42.35
2023-04-01T10:51:03.858Z,44.59
2023-04-01T10:53:51.346Z,46.28
2023-04-01T10:56:42.632Z,47.72
2023-04-01T10:59:44.042Z,48.43
2023-04-01T11:02:54.363Z,48.09
2023-04-01T11:05:51.345Z,46.87
2023-04-01T11:08:54.508Z,45.19
2023-04-01T11:11:57.298Z,44.42
2023-04-01T11:14:54.626Z,41.06
2023-04-01T11:18:16.444Z,36.00
2023-04-01T11:21:07.840Z,32.28
2023-04-01T11:24:11.413Z,30.02
2023-04-01T11:26:54.869Z,28.24
2023-04-01T11:29:59.191Z,26.41
2023-04-01T11:32:44.414Z,25.00
2023-04-01T11:35:33.089Z,23.88
2023-04-01T11:38:12.168Z,23.01
2023-04-01T11:40:49.907Z,22.22
2023-04-01T11:43:33.594Z,21.56
2023-04-01T11:46:12.270Z,21.17
2023-04-01T11:48:54.708Z,20.86
2023-04-01T11:51:57.937Z,20.59
2023-04-01T11:54:42.637Z,20.37
2023-04-01T11:57:32.563Z,20.17
2023-04-01T12:00:15.499Z,20.14
2023-04-01T12:02:57.649Z,20.19
2023-04-01T12:05:40.367Z,20.33
2023-04-01T12:08:30.783Z,20.51
2023-04-01T12:11:07.156Z,20.66
2023-04-01T12:13:46.843Z,20.72
2023-04-01T12:16:33.135Z,20.72
2023-04-01T12:19:11.565Z,20.71
2023-04-01T12:21:47.666Z,20.69
2023-04-01T12:24:47.132Z,20.72
2023-04-01T12:27:25.904Z,20.74
2023-04-01T12:30:19.554Z,20.73
2023-04-01T12:32:57.677Z,20.71
2023-04-01T12:35:32.423Z,20.78
2023-04-01T12:38:24.524Z,20.99
2023-04-01T12:41:04.624Z,21.13
2023-04-01T12:44:15.573Z,21.28
2023-04-01T12:47:02.215Z,21.38
2023-04-01T12:49:55.851Z,21.48
2023-04-01T12:52:36.710Z,21.52
2023-04-01T12:55:38.820Z,21.36
2023-04-01T12:58:44.020Z,21.29
2023-04-01T13:01:37.533Z,21.02
2023-04-01T13:04:34.059Z,20.72
2023-04-01T13:07:30.828Z,20.56
2023-04-01T13:10:09.105Z,20.17
2023-04-01T13:12:54.586Z,19.98
2023-04-01T13:15:30.739Z,19.88
2023-04-01T13:18:10.832Z,19.92
2023-04-01T13:20:46.719Z,20.04
2023-04-01T13:23:27.301Z,20.06
2023-04-01T13:26:13.646Z,20.02
2023-04-01T13:28:49.636Z,19.91
2023-04-01T13:31:34.152Z,19.71
2023-04-01T13:34:15.877Z,19.47
2023-04-01T13:36:57.655Z,19.16
2023-04-01T13:39:38.183Z,19.04
2023-04-01T13:42:19.098Z,18.87
2023-04-01T13:44:52.553Z,18.74
2023-04-01T13:47:49.367Z,18.69
2023-04-01T13:50:33.607Z,18.74
2023-04-01T13:53:42.537Z,18.79
2023-04-01T13:56:18.719Z,18.88
2023-04-01T13:58:57.810Z,18.86
2023-04-01T14:01:34.688Z,18.77
2023-04-01T14:04:32.668Z,18.72
2023-04-01T14:07:10.719Z,18.80
2023-04-01T14:10:01.543Z,18.89
2023-04-01T14:12:35.137Z,19.03
2023-04-01T14:15:25.140Z,19.09
2023-04-01T14:18:03.788Z,19.10
2023-04-01T14:20:41.541Z,19.03
2023-04-01T14:23:37.618Z,18.82
2023-04-01T14:26:27.825Z,18.82
2023-04-01T14:29:05.075Z,18.90
2023-04-01T14:32:04.528Z,18.84
2023-04-01T14:34:51.050Z,18.82
2023-04-01T14:37:32.285Z,18.66
2023-04-01T14:40:24.172Z,18.67
2023-04-01T14:43:09.605Z,18.71
2023-04-01T14:45:53.273Z,18.76
2023-04-01T14:48:29.721Z,18.84
2023-04-01T14:51:05.321Z,18.88
2023-04-01T14:53:39.744Z,18.94
2023-04-01T14:56:08.023Z,18.97
2023-04-01T14:58:46.690Z,19.05
2023-04-01T15:01:35.917Z,19.13
2023-04-01T15:04:23.762Z,19.23
2023-04-01T15:07:04.591Z,19.34
2023-04-01T15:09:42.651Z,19.40
2023-04-01T15:12:23.110Z,19.47
2023-04-01T15:15:07.043Z,19.51
2023-04-01T15:17:47.101Z,19.55
2023-04-01T15:20:48.235Z,19.53
2023-04-01T15:23:30.198Z,19.43
2023-04-01T15:26:23.139Z,19.34
2023-04-01T15:29:03.459Z,19.26
2023-04-01T15:31:41.288Z,19.26
2023-04-01T15:34:26.475Z,19.38
2023-04-01T15:37:00.415Z,19.40
2023-04-01T15:39:41.614Z,19.42
2023-04-01T15:42:27.443Z,19.38
2023-04-01T15:45:07.794Z,19.30
2023-04-01T15:47:45.321Z,19.23
2023-04-01T15:50:55.389Z,19.17
2023-04-01T15:53:39.225Z,19.12
2023-04-01T15:56:28.325Z,19.05
2023-04-01T15:59:33.348Z,18.99
2023-04-01T16:02:09.783Z,18.89
2023-04-01T16:04:50.810Z,18.80
2023-04-01T16:07:33.483Z,18.70
2023-04-01T16:10:24.031Z,18.65
2023-04-01T16:13:05.266Z,18.57
2023-04-01T16:15:45.641Z,18.49
2023-04-01T16:18:45.120Z,18.40
2023-04-01T16:21:24.339Z,18.34
2023-04-01T16:23:58.163Z,18.31
2023-04-01T16:26:31.969Z,18.29
2023-04-01T16:29:07.716Z,18.16
2023-04-01T16:31:45.522Z,18.05
2023-04-01T16:34:20.810Z,17.97
2023-04-01T16:36:53.768Z,17.97
2023-04-01T16:39:37.410Z,17.88
2023-04-01T16:42:21.798Z,17.72
2023-04-01T16:44:57.153Z,17.56
2023-04-01T16:47:32.525Z,17.38
2023-04-01T16:50:08.112Z,17.14
2023-04-01T16:52:50.689Z,16.77
2023-04-01T16:55:21.736Z,16.49
2023-04-01T16:57:53.494Z,16.25
2023-04-01T17:00:28.776Z,16.01
2023-04-01T17:03:06.418Z,15.69
2023-04-01T17:05:51.732Z,15.40
2023-04-01T17:08:32.638Z,15.17
2023-04-01T17:11:12.471Z,15.05
2023-04-01T17:13:49.622Z,15.01
2023-04-01T17:16:46.283Z,14.94
2023-04-01T17:19:25.726Z,14.87
2023-04-01T17:22:06.018Z,14.82
2023-04-01T17:24:55.583Z,14.76
2023-04-01T17:27:35.824Z,14.66
2023-04-01T17:30:21.621Z,14.59
2023-04-01T17:33:08.058Z,14.52
2023-04-01T17:35:40.855Z,14.46
2023-04-01T17:38:21.333Z,14.41
2023-04-01T17:41:02.680Z,14.35
2023-04-01T17:43:43.249Z,14.27
2023-04-01T17:46:26.324Z,14.20
2023-04-01T17:49:03.528Z,14.05
2023-04-01T17:51:38.366Z,13.93
2023-04-01T17:54:22.967Z,13.85
2023-04-01T17:57:10.059Z,13.74
2023-04-01T17:59:40.296Z,13.66
2023-04-01T18:02:24.731Z,13.54
2023-04-01T18:05:23.855Z,13.47
2023-04-01T18:08:18.172Z,13.35
2023-04-01T18:11:00.378Z,13.30
2023-04-01T18:13:48.218Z,13.22
2023-04-01T18:16:29.805Z,13.10
2023-04-01T18:19:05.179Z,13.00
2023-04-01T18:21:45.162Z,12.94
2023-04-01T18:24:20.783Z,12.90
2023-04-01T18:26:53.406Z,12.81
2023-04-01T18:29:36.192Z,12.72
2023-04-01T18:32:17.908Z,12.69
2023-04-01T18:34:55.403Z,12.64
2023-04-01T18:37:29.512Z,12.61
2023-04-01T18:40:06.123Z,12.61
2023-04-01T18:42:47.331Z,12.57
2023-04-01T18:45:25.085Z,12.55
2023-04-01T18:48:03.746Z,12.57
2023-04-01T18:50:40.095Z,12.64
2023-04-01T18:53:26.188Z,12.69
2023-04-01T18:55:57.196Z,12.66
2023-04-01T18:58:30.351Z,12.54
2023-04-01T19:01:10.948Z,12.40
2023-04-01T19:03:46.972Z,12.29
2023-04-01T19:06:23.837Z,12.28
2023-04-01T19:08:54.669Z,12.34
2023-04-01T19:11:32.643Z,12.39
2023-04-01T19:14:14.061Z,12.42
2023-04-01T19:16:52.919Z,12.50
2023-04-01T19:19:35.348Z,12.53
2023-04-01T19:22:15.948Z,12.61
2023-04-01T19:25:11.967Z,12.67
2023-04-01T19:27:48.643Z,12.72
2023-04-01T19:30:33.248Z,12.76
2023-04-01T19:33:19.502Z,12.75
2023-04-01T19:35:51.689Z,12.70
2023-04-01T19:38:29.144Z,12.64
2023-04-01T19:41:01.821Z,12.63
2023-04-01T19:43:42.776Z,12.62
2023-04-01T19:46:20.622Z,12.62
2023-04-01T19:49:05.449Z,12.61
2023-04-01T19:51:39.762Z,12.61
2023-04-01T19:54:21.684Z,12.63
2023-04-01T19:56:55.635Z,12.61
2023-04-01T19:59:33.606Z,12.61
2023-04-01T20:02:12.201Z,12.57
2023-04-01T20:04:46.237Z,12.53
2023-04-01T20:07:22.852Z,12.50
2023-04-01T20:10:00.674Z,12.49
2023-04-01T20:12:41.801Z,12.46
2023-04-01T20:15:28.814Z,12.38
2023-04-01T20:18:00.525Z,12.32
2023-04-01T20:20:32.886Z,12.28
2023-04-01T20:23:14.644Z,12.27
2023-04-01T20:25:48.782Z,12.26
2023-04-01T20:28:25.531Z,12.25
2023-04-01T20:31:27.443Z,12.27
2023-04-01T20:34:21.187Z,12.29
2023-04-01T20:37:02.832Z,12.33
2023-04-01T20:39:46.787Z,12.37
2023-04-01T20:42:29.461Z,12.38
2023-04-01T20:45:12.221Z,12.36
2023-04-01T20:47:58.458Z,12.30
2023-04-01T20:50:31.770Z,12.27
2023-04-01T20:53:07.618Z,12.25
2023-04-01T20:56:04.443Z,12.17
2023-04-01T20:58:44.555Z,12.11
2023-04-01T21:01:22.015Z,12.06
2023-04-01T21:04:03.057Z,11.92
2023-04-01T21:07:09.312Z,11.72
2023-04-01T21:10:14.591Z,11.51
2023-04-01T21:12:51.717Z,11.36
2023-04-01T21:15:44.574Z,11.24
2023-04-01T21:18:41.932Z,11.18
2023-04-01T21:21:37.170Z,11.14
2023-04-01T21:24:56.188Z,11.12
2023-04-01T21:27:41.545Z,11.14
2023-04-01T21:30:24.661Z,11.13
2023-04-01T21:33:09.788Z,11.15
2023-04-01T21:35:46.755Z,11.19
2023-04-01T21:38:39.452Z,11.13
2023-04-01T21:41:44.748Z,11.09
2023-04-01T21:44:37.869Z,11.05
2023-04-01T21:47:26.686Z,11.02
2023-04-01T21:50:30.120Z,11.04
2023-04-01T21:53:22.041Z,11.06
2023-04-01T21:56:24.846Z,11.09
2023-04-01T21:59:31.416Z,11.06
2023-04-01T22:02:45.760Z,11.07
2023-04-01T22:05:19.843Z,11.10
2023-04-01T22:07:54.800Z,11.14
2023-04-01T22:10:31.984Z,11.19
2023-04-01T22:13:09.384Z,11.25
2023-04-01T22:15:56.748Z,11.26
2023-04-01T22:18:35.206Z,11.30
2023-04-01T22:21:10.528Z,11.32
2023-04-01T22:23:44.482Z,11.31
2023-04-01T22:26:19.787Z,11.30
2023-04-01T22:28:56.958Z,11.28
2023-04-01T22:31:30.904Z,11.28
2023-04-01T22:34:09.693Z,11.25
2023-04-01T22:36:47.899Z,11.20
2023-04-01T22:39:35.022Z,11.24
2023-04-01T22:42:16.797Z,11.24
2023-04-01T22:45:01.413Z,11.24
2023-04-01T22:47:40.416Z,11.25
2023-04-01T22:50:18.117Z,11.27
2023-04-01T22:52:49.305Z,11.29
2023-04-01T22:55:22.289Z,11.29
2023-04-01T22:57:54.267Z,11.29
2023-04-01T23:00:28.213Z,11.29
2023-04-01T23:03:11.782Z,11.26
2023-04-01T23:05:48.133Z,11.22
2023-04-01T23:08:53.805Z,11.17
2023-04-01T23:11:27.118Z,11.14
2023-04-01T23:13:59.462Z,11.11
2023-04-01T23:16:36.924Z,11.05
2023-04-01T23:19:18.665Z,11.02
2023-04-01T23:21:54.140Z,10.97
2023-04-01T23:24:30.509Z,10.96
2023-04-01T23:27:04.535Z,10.95
2023-04-01T23:29:37.068Z,10.94
2023-04-01T23:32:06.057Z,10.91
2023-04-01T23:34:36.045Z,10.89
2023-04-01T23:37:10.824Z,10.85
2023-04-01T23:39:40.668Z,10.86
2023-04-01T23:42:15.030Z,10.84
2023-04-01T23:44:44.359Z,10.82
2023-04-01T23:47:18.431Z,10.78
2023-04-01T23:49:50.282Z,10.77
2023-04-01T23:52:25.388Z,10.75
2023-04-01T23:54:56.619Z,10.73
2023-04-01T23:57:28.909Z,10.74
